Weather History for Menominee, MI

Change the Weather History Date:

Saturday, December 1, 2012

  Actual Average Record
Temperature  
Mean Temperature 42 °F -  
Max Temperature 46 °F 36 °F 60 °F (1962)
Min Temperature 37 °F 21 °F -1 °F (1966)
Degree Days  
Heating Degree Days 24    
Moisture  
Dew Point 39 °F    
Average Humidity 93    
Maximum Humidity 100    
Minimum Humidity 87    
Precipitation  
Precipitation 0.00 in - - ()
Sea Level Pressure  
Sea Level Pressure 29.98 in    
Wind  
Wind Speed 8 mph (South)    
Max Wind Speed 13 mph    
Max Gust Speed 18 mph    
Visibility 3 miles    
Events      
Averages and records for this station are not official NWS values.
T = Trace of Precipitation, MM = Missing Value Source: NWS Daily Summary

Daily Weather History Graph

Daily Weather History Graph

Search for Another Location

Airport:

Trip Planner

Search our weather history database for the weather conditions in past years. The results will help you decide how hot, cold, wet, or windy it might be!

Date:

Astronomy

Dec. 01, 2012 Rise Set
Actual Time 7:09 AM CST 4:09 PM CST
Civil Twilight 6:36 AM CST 4:43 PM CST
Nautical Twilight 5:59 AM CST 5:19 PM CST
Astronomical Twilight 5:24 AM CST 5:55 PM CST
Moon 7:01 PM CST (12/1) 9:20 AM CST (12/1)
Length of Visible Light 10h 06m
Length of Day
9h 00m
Waning Gibbous, 91% of the Moon is Illuminated
Dec 1
Waning Gibbous
Dec 6
Last Quarter
Dec 13
New
Dec 19
First Quarter
Dec 28
Full

Hourly Weather History & Observations

Time (CST) Temp. Windchill Dew Point Humidity Pressure Visibility Wind Dir Wind Speed Gust Speed Precip Events Conditions
12:15 AM 37.4 °F 31.4 °F 33.8 °F 87% 30.22 in 7.0 mi South 8.1 mph - N/A   Overcast
12:35 AM 37.4 °F 33.8 °F 33.8 °F 87% 30.21 in 7.0 mi SSE 4.6 mph - N/A   Overcast
12:55 AM 37.4 °F 32.1 °F 33.8 °F 87% 30.20 in 7.0 mi SSE 6.9 mph - N/A   Overcast
1:15 AM 37.4 °F 30.8 °F 33.8 °F 87% 30.20 in 7.0 mi SSE 9.2 mph - N/A   Overcast
1:35 AM 37.4 °F 32.8 °F 33.8 °F 87% 30.20 in 7.0 mi SSE 5.8 mph - N/A   Overcast
1:55 AM 37.4 °F 32.1 °F 33.8 °F 87% 30.20 in 7.0 mi SSE 6.9 mph - N/A   Overcast
2:15 AM 37.4 °F 30.3 °F 33.8 °F 87% 30.19 in 7.0 mi SSE 10.4 mph - N/A   Overcast
2:55 AM 37.4 °F 32.8 °F 33.8 °F 87% 30.18 in 7.0 mi SSE 5.8 mph - N/A   Overcast
3:15 AM 37.4 °F 32.8 °F 35.6 °F 93% 30.18 in 6.0 mi South 5.8 mph - N/A   Overcast
3:35 AM 37.4 °F 30.8 °F 33.8 °F 87% 30.17 in 6.0 mi South 9.2 mph - N/A   Overcast
3:55 AM 37.4 °F 33.8 °F 33.8 °F 87% 30.17 in 5.0 mi South 4.6 mph - N/A   Overcast
4:15 AM 37.4 °F 30.8 °F 33.8 °F 87% 30.15 in 5.0 mi SSE 9.2 mph - N/A   Overcast
4:35 AM 37.4 °F 30.3 °F 35.6 °F 93% 30.15 in 5.0 mi SSE 10.4 mph - N/A   Overcast
5:15 AM 37.4 °F 31.4 °F 35.6 °F 93% 30.15 in 5.0 mi SSE 8.1 mph - N/A   Overcast
6:15 AM 37.4 °F 31.4 °F 35.6 °F 93% 30.13 in 4.0 mi SSE 8.1 mph - N/A   Overcast
6:35 AM 37.4 °F 30.8 °F 35.6 °F 93% 30.12 in 4.0 mi SSE 9.2 mph - N/A   Overcast
6:55 AM 39.2 °F 32.5 °F 37.4 °F 93% 30.11 in 4.0 mi SSE 10.4 mph - N/A   Overcast
7:15 AM 37.4 °F 30.3 °F 35.6 °F 93% 30.12 in 3.0 mi South 10.4 mph - N/A   Overcast
7:35 AM 37.4 °F 30.3 °F 35.6 °F 93% 30.11 in 2.5 mi SSE 10.4 mph - N/A   Overcast
7:55 AM 37.4 °F 31.4 °F 35.6 °F 93% 30.10 in 2.0 mi SSE 8.1 mph - N/A   Overcast
8:15 AM 39.2 °F 33.6 °F 35.6 °F 87% 30.10 in 2.5 mi South 8.1 mph - N/A   Overcast
8:35 AM 39.2 °F 33.6 °F 35.6 °F 87% 30.10 in 3.0 mi South 8.1 mph - N/A   Overcast
9:15 AM 39.2 °F 32.5 °F 35.6 °F 87% 30.08 in 3.0 mi South 10.4 mph 16.1 mph N/A   Overcast
9:35 AM 39.2 °F 31.6 °F 35.6 °F 87% 30.07 in 3.0 mi South 12.7 mph - N/A   Overcast
9:55 AM 39.2 °F 31.6 °F 37.4 °F 93% 30.07 in 3.0 mi South 12.7 mph - N/A   Overcast
10:15 AM 39.2 °F 32.5 °F 35.6 °F 87% 30.07 in 3.0 mi South 10.4 mph 18.4 mph N/A   Overcast
10:35 AM 39.2 °F 32.5 °F 35.6 °F 87% 30.05 in 2.5 mi South 10.4 mph - N/A   Overcast
10:55 AM 39.2 °F 31.6 °F 37.4 °F 93% 30.03 in 2.5 mi South 12.7 mph 16.1 mph N/A   Overcast
11:15 AM 39.2 °F 32.5 °F 35.6 °F 87% 30.03 in 3.0 mi South 10.4 mph 17.3 mph N/A   Overcast
11:35 AM 39.2 °F 32.5 °F 35.6 °F 87% 30.01 in 2.5 mi South 10.4 mph - N/A   Overcast
11:55 AM 39.2 °F 32.5 °F 37.4 °F 93% 30.01 in 2.5 mi South 10.4 mph 17.3 mph N/A   Overcast
12:15 PM 39.2 °F 33.6 °F 37.4 °F 93% 30.01 in 2.5 mi South 8.1 mph - N/A   Overcast
12:35 PM 39.2 °F 32.0 °F 37.4 °F 93% 30.00 in 2.5 mi South 11.5 mph - N/A   Overcast
12:55 PM 39.2 °F 34.2 °F 37.4 °F 93% 29.98 in 2.5 mi South 6.9 mph - N/A   Overcast
1:15 PM 39.2 °F 32.5 °F 37.4 °F 93% 29.96 in 2.0 mi South 10.4 mph - N/A   Overcast
1:35 PM 39.2 °F 32.5 °F 37.4 °F 93% 29.95 in 1.8 mi South 10.4 mph - N/A   Overcast
1:55 PM 39.2 °F 33.6 °F 39.2 °F 100% 29.97 in 1.5 mi South 8.1 mph - N/A   Overcast
2:15 PM 39.2 °F 35.0 °F 39.2 °F 100% 29.94 in 1.5 mi South 5.8 mph - N/A   Overcast
2:35 PM 39.2 °F 35.0 °F 39.2 °F 100% 29.93 in 1.2 mi South 5.8 mph - N/A   Overcast
2:55 PM 41.0 °F 35.2 °F 39.2 °F 93% 29.91 in 1.0 mi South 9.2 mph - N/A   Overcast
3:15 PM 42.8 °F 37.0 °F 39.2 °F 87% 29.90 in 1.0 mi SSE 10.4 mph - N/A   Overcast
3:35 PM 41.0 °F 35.8 °F 41.0 °F 100% 29.90 in 0.8 mi South 8.1 mph 16.1 mph N/A   Overcast
3:55 PM 39.2 °F 32.0 °F 39.2 °F 100% 29.88 in 1.0 mi South 11.5 mph - N/A   Overcast
4:15 PM 41.0 °F 34.3 °F 41.0 °F 100% 29.88 in 1.2 mi South 11.5 mph 16.1 mph N/A   Overcast
4:35 PM 41.0 °F 34.3 °F 41.0 °F 100% 29.86 in 2.0 mi South 11.5 mph - N/A   Overcast
4:55 PM 41.0 °F 34.7 °F 41.0 °F 100% 29.86 in 2.0 mi South 10.4 mph - N/A   Overcast
5:15 PM 41.0 °F 34.7 °F 41.0 °F 100% 29.85 in 2.5 mi South 10.4 mph - N/A   Overcast
5:55 PM 42.8 °F 37.5 °F 42.8 °F 100% 29.83 in 2.0 mi South 9.2 mph - N/A   Overcast
6:15 PM 42.8 °F 38.6 °F 41.0 °F 93% 29.84 in 2.0 mi SSW 6.9 mph - N/A   Overcast
6:35 PM 44.6 °F 39.7 °F 42.8 °F 93% 29.83 in 2.0 mi SSW 9.2 mph - N/A   Overcast
6:55 PM 42.8 °F 38.6 °F 42.8 °F 100% 29.82 in 2.0 mi SSW 6.9 mph - N/A   Overcast
7:15 PM 44.6 °F 40.7 °F 42.8 °F 93% 29.81 in 1.8 mi SSW 6.9 mph - N/A   Overcast
7:35 PM 44.6 °F 39.2 °F 42.8 °F 93% 29.80 in 2.0 mi SSW 10.4 mph - N/A   Overcast
7:55 PM 42.8 °F 37.0 °F 42.8 °F 100% 29.80 in 1.8 mi SW 10.4 mph - N/A   Overcast
8:15 PM 44.6 °F 39.7 °F 44.6 °F 100% 29.81 in 2.0 mi SW 9.2 mph - N/A   Overcast
8:35 PM 44.6 °F 39.7 °F 44.6 °F 100% 29.81 in 1.8 mi SW 9.2 mph - N/A   Overcast
8:55 PM 46.4 °F 41.9 °F 44.6 °F 93% 29.80 in 1.8 mi SW 9.2 mph - N/A   Overcast
9:15 PM 44.6 °F 42.2 °F 42.8 °F 93% 29.80 in 1.0 mi WSW 4.6 mph - N/A   Overcast
9:35 PM 44.6 °F 42.2 °F 44.6 °F 100% 29.80 in 0.5 mi West 4.6 mph - N/A   Overcast
9:55 PM 44.6 °F 43.1 °F 44.6 °F 100% 29.79 in 0.5 mi West 3.5 mph - N/A   Overcast
10:15 PM 44.6 °F 43.1 °F 42.8 °F 93% 29.79 in 0.5 mi West 3.5 mph - N/A   Overcast
10:35 PM 44.6 °F 43.1 °F 42.8 °F 93% 29.79 in 0.5 mi West 3.5 mph - N/A   Overcast
10:55 PM 44.6 °F 42.2 °F 44.6 °F 100% 29.80 in 0.5 mi West 4.6 mph - N/A   Overcast
11:15 PM 44.6 °F - 44.6 °F 100% 29.79 in 0.5 mi Calm Calm - N/A   Overcast
11:35 PM 44.6 °F 43.1 °F 44.6 °F 100% 29.79 in 1.0 mi West 3.5 mph - N/A   Overcast
11:55 PM 44.6 °F - 44.6 °F 100% 29.79 in 1.2 mi Calm Calm - N/A   Overcast